sensor_id;sensor_type;location;lat;lon;timestamp;pressure;altitude;pressure_sealevel;temperature;humidity
46045;BME280;31781;54.094;13.428;2022-11-20T00:04:10;101037.97;;;2.67;74.82
46045;BME280;31781;54.094;13.428;2022-11-20T00:09:13;101043.19;;;2.68;74.48
46045;BME280;31781;54.094;13.428;2022-11-20T00:14:16;101050.41;;;2.68;74.61
46045;BME280;31781;54.094;13.428;2022-11-20T00:19:25;101052.41;;;2.66;74.49
46045;BME280;31781;54.094;13.428;2022-11-20T00:24:29;101056.75;;;2.67;74.61
46045;BME280;31781;54.094;13.428;2022-11-20T00:29:32;101061.16;;;2.68;74.99
46045;BME280;31781;54.094;13.428;2022-11-20T00:34:40;101058.47;;;2.68;75.09
46045;BME280;31781;54.094;13.428;2022-11-20T00:39:43;101065.38;;;2.70;75.04
46045;BME280;31781;54.094;13.428;2022-11-20T00:44:46;101059.84;;;2.72;75.33
46045;BME280;31781;54.094;13.428;2022-11-20T00:49:55;101051.50;;;2.75;75.34
46045;BME280;31781;54.094;13.428;2022-11-20T01:05:49;101054.66;;;2.88;74.88
46045;BME280;31781;54.094;13.428;2022-11-20T01:10:52;101049.75;;;2.83;75.18
46045;BME280;31781;54.094;13.428;2022-11-20T01:16:16;101049.56;;;2.88;74.95
46045;BME280;31781;54.094;13.428;2022-11-20T01:21:35;101034.25;;;2.95;74.79
46045;BME280;31781;54.094;13.428;2022-11-20T01:26:42;101046.31;;;2.91;75.31
46045;BME280;31781;54.094;13.428;2022-11-20T01:31:45;101045.12;;;2.93;75.62
46045;BME280;31781;54.094;13.428;2022-11-20T01:36:54;101045.84;;;2.96;75.63
46045;BME280;31781;54.094;13.428;2022-11-20T01:41:58;101049.22;;;2.98;75.49
46045;BME280;31781;54.094;13.428;2022-11-20T01:47:20;101044.06;;;3.04;75.23
46045;BME280;31781;54.094;13.428;2022-11-20T01:52:28;101048.38;;;2.97;75.52
46045;BME280;31781;54.094;13.428;2022-11-20T01:57:35;101043.00;;;2.97;75.93
46045;BME280;31781;54.094;13.428;2022-11-20T02:02:48;101045.69;;;2.97;75.96
46045;BME280;31781;54.094;13.428;2022-11-20T02:07:55;101047.50;;;2.97;75.47
46045;BME280;31781;54.094;13.428;2022-11-20T02:18:21;101040.63;;;2.94;74.75
46045;BME280;31781;54.094;13.428;2022-11-20T02:23:31;101037.44;;;2.81;74.90
46045;BME280;31781;54.094;13.428;2022-11-20T02:28:42;101037.91;;;2.76;74.79
46045;BME280;31781;54.094;13.428;2022-11-20T02:33:45;101033.84;;;2.72;74.69
46045;BME280;31781;54.094;13.428;2022-11-20T02:38:49;101041.34;;;2.69;74.87
46045;BME280;31781;54.094;13.428;2022-11-20T02:43:59;101037.81;;;2.68;75.12
46045;BME280;31781;54.094;13.428;2022-11-20T02:59:33;101024.84;;;2.64;75.20
46045;BME280;31781;54.094;13.428;2022-11-20T03:04:36;101020.44;;;2.63;75.06
46045;BME280;31781;54.094;13.428;2022-11-20T03:15:11;101017.19;;;2.69;74.97
46045;BME280;31781;54.094;13.428;2022-11-20T03:20:14;101023.84;;;2.65;75.22
46045;BME280;31781;54.094;13.428;2022-11-20T03:25:18;101022.69;;;2.67;75.52
46045;BME280;31781;54.094;13.428;2022-11-20T03:30:27;101023.41;;;2.69;75.49
46045;BME280;31781;54.094;13.428;2022-11-20T03:35:31;101023.22;;;2.71;75.30
46045;BME280;31781;54.094;13.428;2022-11-20T03:40:41;101023.22;;;2.71;75.44
46045;BME280;31781;54.094;13.428;2022-11-20T03:51:20;100999.44;;;2.76;74.79
46045;BME280;31781;54.094;13.428;2022-11-20T03:56:25;100999.34;;;2.68;74.67
46045;BME280;31781;54.094;13.428;2022-11-20T04:01:36;100997.28;;;2.62;75.01
46045;BME280;31781;54.094;13.428;2022-11-20T04:06:46;101007.31;;;2.60;74.99
46045;BME280;31781;54.094;13.428;2022-11-20T04:11:52;101005.94;;;2.56;74.83
46045;BME280;31781;54.094;13.428;2022-11-20T04:16:57;101003.56;;;2.53;75.12
46045;BME280;31781;54.094;13.428;2022-11-20T04:22:06;101002.87;;;2.51;75.23
46045;BME280;31781;54.094;13.428;2022-11-20T04:32:31;100998.91;;;2.55;74.95
46045;BME280;31781;54.094;13.428;2022-11-20T04:37:35;101002.16;;;2.49;75.20
46045;BME280;31781;54.094;13.428;2022-11-20T04:42:38;100999.66;;;2.47;75.54
46045;BME280;31781;54.094;13.428;2022-11-20T04:47:46;100987.22;;;2.46;75.65
46045;BME280;31781;54.094;13.428;2022-11-20T04:52:49;100981.69;;;2.48;75.57
46045;BME280;31781;54.094;13.428;2022-11-20T04:57:52;100980.00;;;2.47;75.74
46045;BME280;31781;54.094;13.428;2022-11-20T05:03:03;100980.84;;;2.47;75.75
46045;BME280;31781;54.094;13.428;2022-11-20T05:08:06;100967.44;;;2.47;75.32
46045;BME280;31781;54.094;13.428;2022-11-20T05:13:09;100974.78;;;2.45;75.64
46045;BME280;31781;54.094;13.428;2022-11-20T05:18:19;100974.09;;;2.43;75.67
46045;BME280;31781;54.094;13.428;2022-11-20T05:23:23;100966.16;;;2.41;75.47
46045;BME280;31781;54.094;13.428;2022-11-20T05:33:47;100960.34;;;2.46;75.30
46045;BME280;31781;54.094;13.428;2022-11-20T05:39:10;100959.50;;;2.45;75.29
46045;BME280;31781;54.094;13.428;2022-11-20T05:44:13;100958.44;;;2.38;75.62
46045;BME280;31781;54.094;13.428;2022-11-20T05:49:16;100967.47;;;2.37;75.83
46045;BME280;31781;54.094;13.428;2022-11-20T05:54:24;100957.75;;;2.36;75.90
46045;BME280;31781;54.094;13.428;2022-11-20T06:04:46;100948.91;;;2.44;75.51
46045;BME280;31781;54.094;13.428;2022-11-20T06:10:05;100950.06;;;2.41;75.50
46045;BME280;31781;54.094;13.428;2022-11-20T06:20:30;100943.75;;;2.33;75.84
46045;BME280;31781;54.094;13.428;2022-11-20T06:25:40;100944.53;;;2.25;76.03
46045;BME280;31781;54.094;13.428;2022-11-20T06:30:44;100942.84;;;2.24;76.50
46045;BME280;31781;54.094;13.428;2022-11-20T06:35:56;100944.81;;;2.22;76.58
46045;BME280;31781;54.094;13.428;2022-11-20T06:41:04;100949.06;;;2.25;76.25
46045;BME280;31781;54.094;13.428;2022-11-20T06:46:09;100943.69;;;2.25;76.58
46045;BME280;31781;54.094;13.428;2022-11-20T06:51:19;100942.53;;;2.27;76.60
46045;BME280;31781;54.094;13.428;2022-11-20T06:56:22;100947.47;;;2.32;76.43
46045;BME280;31781;54.094;13.428;2022-11-20T07:06:47;100945.94;;;2.47;76.02
46045;BME280;31781;54.094;13.428;2022-11-20T07:11:53;100948.09;;;2.43;76.21
46045;BME280;31781;54.094;13.428;2022-11-20T07:16:57;100940.84;;;2.44;76.37
46045;BME280;31781;54.094;13.428;2022-11-20T07:27:30;100925.66;;;2.53;75.91
46045;BME280;31781;54.094;13.428;2022-11-20T07:43:14;100923.53;;;2.49;75.85
46045;BME280;31781;54.094;13.428;2022-11-20T07:48:17;100926.22;;;2.48;76.17
46045;BME280;31781;54.094;13.428;2022-11-20T07:53:20;100926.47;;;2.48;76.54
46045;BME280;31781;54.094;13.428;2022-11-20T07:58:29;100927.75;;;2.47;76.64
46045;BME280;31781;54.094;13.428;2022-11-20T08:03:32;100925.56;;;2.47;76.38
46045;BME280;31781;54.094;13.428;2022-11-20T08:08:35;100926.62;;;2.48;76.63
46045;BME280;31781;54.094;13.428;2022-11-20T08:19:03;100924.47;;;2.65;76.17
46045;BME280;31781;54.094;13.428;2022-11-20T08:24:07;100922.94;;;2.62;76.51
46045;BME280;31781;54.094;13.428;2022-11-20T08:29:13;100922.63;;;2.65;76.56
46045;BME280;31781;54.094;13.428;2022-11-20T08:34:23;100920.59;;;2.67;76.57
46045;BME280;31781;54.094;13.428;2022-11-20T08:39:26;100919.31;;;2.71;76.37
46045;BME280;31781;54.094;13.428;2022-11-20T08:44:28;100915.47;;;2.74;76.48
46045;BME280;31781;54.094;13.428;2022-11-20T08:49:36;100918.00;;;2.75;76.36
46045;BME280;31781;54.094;13.428;2022-11-20T08:54:39;100910.47;;;2.79;76.19
46045;BME280;31781;54.094;13.428;2022-11-20T08:59:49;100913.22;;;2.87;76.32
46045;BME280;31781;54.094;13.428;2022-11-20T09:10:33;100911.03;;;3.08;75.86
46045;BME280;31781;54.094;13.428;2022-11-20T09:21:08;100907.09;;;3.20;75.71
46045;BME280;31781;54.094;13.428;2022-11-20T09:26:14;100912.47;;;3.20;75.80
46045;BME280;31781;54.094;13.428;2022-11-20T09:31:21;100911.84;;;3.26;75.52
46045;BME280;31781;54.094;13.428;2022-11-20T09:36:33;100913.06;;;3.32;75.10
46045;BME280;31781;54.094;13.428;2022-11-20T09:41:55;100910.72;;;3.37;74.52
46045;BME280;31781;54.094;13.428;2022-11-20T09:47:08;100904.34;;;3.38;74.08
46045;BME280;31781;54.094;13.428;2022-11-20T09:52:23;100898.84;;;3.39;73.85
46045;BME280;31781;54.094;13.428;2022-11-20T09:57:35;100898.34;;;3.44;73.89
46045;BME280;31781;54.094;13.428;2022-11-20T10:02:44;100898.56;;;3.51;74.37
46045;BME280;31781;54.094;13.428;2022-11-20T10:08:13;100896.78;;;3.67;74.19
46045;BME280;31781;54.094;13.428;2022-11-20T10:13:28;100892.78;;;3.71;73.88
46045;BME280;31781;54.094;13.428;2022-11-20T10:18:48;100890.13;;;3.79;73.84
46045;BME280;31781;54.094;13.428;2022-11-20T10:24:21;100885.91;;;3.85;73.16
46045;BME280;31781;54.094;13.428;2022-11-20T10:34:52;100880.78;;;4.08;73.03
46045;BME280;31781;54.094;13.428;2022-11-20T10:40:14;100880.31;;;4.12;72.76
46045;BME280;31781;54.094;13.428;2022-11-20T10:51:03;100867.59;;;4.87;73.44
46045;BME280;31781;54.094;13.428;2022-11-20T10:56:17;100869.25;;;4.96;72.37
46045;BME280;31781;54.094;13.428;2022-11-20T11:01:22;100870.94;;;5.05;71.92
46045;BME280;31781;54.094;13.428;2022-11-20T11:06:36;100869.59;;;5.09;69.37
46045;BME280;31781;54.094;13.428;2022-11-20T11:11:40;100863.16;;;5.10;70.84
46045;BME280;31781;54.094;13.428;2022-11-20T11:16:50;100865.72;;;5.12;70.19
46045;BME280;31781;54.094;13.428;2022-11-20T11:21:59;100865.38;;;5.15;70.77
46045;BME280;31781;54.094;13.428;2022-11-20T11:27:04;100862.16;;;5.19;70.86
46045;BME280;31781;54.094;13.428;2022-11-20T11:37:40;100862.78;;;5.37;70.18
46045;BME280;31781;54.094;13.428;2022-11-20T11:48:04;100852.00;;;5.29;70.50
46045;BME280;31781;54.094;13.428;2022-11-20T11:53:14;100848.31;;;5.22;70.62
46045;BME280;31781;54.094;13.428;2022-11-20T11:58:34;100846.31;;;5.24;70.78
46045;BME280;31781;54.094;13.428;2022-11-20T12:03:53;100850.00;;;5.31;71.43
46045;BME280;31781;54.094;13.428;2022-11-20T12:09:08;100845.25;;;5.33;71.08
46045;BME280;31781;54.094;13.428;2022-11-20T12:14:17;100847.97;;;5.33;70.63
46045;BME280;31781;54.094;13.428;2022-11-20T12:19:30;100852.50;;;5.33;71.26
46045;BME280;31781;54.094;13.428;2022-11-20T12:24:44;100845.25;;;5.33;71.36
46045;BME280;31781;54.094;13.428;2022-11-20T12:30:08;100829.91;;;5.42;71.42
46045;BME280;31781;54.094;13.428;2022-11-20T12:35:27;100826.50;;;5.40;71.87
46045;BME280;31781;54.094;13.428;2022-11-20T12:40:40;100826.00;;;5.45;71.69
46045;BME280;31781;54.094;13.428;2022-11-20T12:46:12;100824.00;;;5.47;71.64
46045;BME280;31781;54.094;13.428;2022-11-20T12:51:38;100813.50;;;5.44;70.91
46045;BME280;31781;54.094;13.428;2022-11-20T12:56:50;100816.06;;;5.37;70.68
46045;BME280;31781;54.094;13.428;2022-11-20T13:02:19;100817.13;;;5.28;70.50
46045;BME280;31781;54.094;13.428;2022-11-20T13:13:00;100815.66;;;5.09;70.73
46045;BME280;31781;54.094;13.428;2022-11-20T13:18:09;100808.09;;;4.97;71.41
46045;BME280;31781;54.094;13.428;2022-11-20T13:23:23;100811.13;;;4.94;71.28
46045;BME280;31781;54.094;13.428;2022-11-20T13:28:33;100820.06;;;4.86;71.12
46045;BME280;31781;54.094;13.428;2022-11-20T13:33:44;100810.28;;;4.77;71.21
46045;BME280;31781;54.094;13.428;2022-11-20T13:38:50;100802.41;;;4.67;71.13
46045;BME280;31781;54.094;13.428;2022-11-20T13:44:24;100802.56;;;4.66;71.28
46045;BME280;31781;54.094;13.428;2022-11-20T13:49:37;100800.56;;;4.52;71.29
46045;BME280;31781;54.094;13.428;2022-11-20T13:55:02;100797.19;;;4.41;71.62
46045;BME280;31781;54.094;13.428;2022-11-20T14:00:17;100795.34;;;4.34;71.73
46045;BME280;31781;54.094;13.428;2022-11-20T14:05:22;100790.94;;;4.33;71.59
46045;BME280;31781;54.094;13.428;2022-11-20T14:10:27;100791.31;;;4.46;71.33
46045;BME280;31781;54.094;13.428;2022-11-20T14:15:38;100783.22;;;4.46;71.36
46045;BME280;31781;54.094;13.428;2022-11-20T14:20:46;100785.56;;;4.41;71.40
46045;BME280;31781;54.094;13.428;2022-11-20T14:26:08;100774.97;;;4.39;71.27
46045;BME280;31781;54.094;13.428;2022-11-20T14:36:38;100777.66;;;4.23;71.49
46045;BME280;31781;54.094;13.428;2022-11-20T14:41:50;100773.78;;;4.10;71.48
46045;BME280;31781;54.094;13.428;2022-11-20T14:46:54;100778.47;;;4.00;71.45
46045;BME280;31781;54.094;13.428;2022-11-20T14:52:11;100783.16;;;3.89;71.36
46045;BME280;31781;54.094;13.428;2022-11-20T14:57:27;100778.94;;;3.79;71.26
46045;BME280;31781;54.094;13.428;2022-11-20T15:02:32;100778.25;;;3.69;71.22
46045;BME280;31781;54.094;13.428;2022-11-20T15:07:43;100776.00;;;3.56;71.20
46045;BME280;31781;54.094;13.428;2022-11-20T15:12:49;100774.47;;;3.46;71.35
46045;BME280;31781;54.094;13.428;2022-11-20T15:17:53;100784.50;;;3.35;71.58
46045;BME280;31781;54.094;13.428;2022-11-20T15:23:01;100784.78;;;3.24;71.87
46045;BME280;31781;54.094;13.428;2022-11-20T15:28:04;100786.59;;;3.16;72.09
46045;BME280;31781;54.094;13.428;2022-11-20T15:33:08;100789.56;;;3.05;72.28
46045;BME280;31781;54.094;13.428;2022-11-20T15:38:17;100796.91;;;2.94;72.29
46045;BME280;31781;54.094;13.428;2022-11-20T15:43:20;100792.47;;;2.85;72.28
46045;BME280;31781;54.094;13.428;2022-11-20T15:53:42;100773.06;;;2.74;72.36
46045;BME280;31781;54.094;13.428;2022-11-20T15:58:46;100769.28;;;2.59;72.49
46045;BME280;31781;54.094;13.428;2022-11-20T16:04:10;100755.87;;;2.59;72.36
46045;BME280;31781;54.094;13.428;2022-11-20T16:09:14;100755.56;;;2.44;72.56
46045;BME280;31781;54.094;13.428;2022-11-20T16:14:16;100750.84;;;2.38;72.74
46045;BME280;31781;54.094;13.428;2022-11-20T16:19:24;100759.53;;;2.32;72.77
46045;BME280;31781;54.094;13.428;2022-11-20T16:24:27;100753.09;;;2.25;72.72
46045;BME280;31781;54.094;13.428;2022-11-20T16:29:30;100770.81;;;2.18;72.91
46045;BME280;31781;54.094;13.428;2022-11-20T16:34:38;100777.62;;;2.12;73.04
46045;BME280;31781;54.094;13.428;2022-11-20T16:39:41;100767.66;;;2.05;73.11
46045;BME280;31781;54.094;13.428;2022-11-20T16:45:18;100763.81;;;2.07;72.81
46045;BME280;31781;54.094;13.428;2022-11-20T16:55:48;100770.03;;;1.90;73.16
46045;BME280;31781;54.094;13.428;2022-11-20T17:06:18;100753.62;;;1.75;73.41
46045;BME280;31781;54.094;13.428;2022-11-20T17:11:22;100755.00;;;1.62;73.50
46045;BME280;31781;54.094;13.428;2022-11-20T17:21:45;100750.75;;;1.59;73.76
46045;BME280;31781;54.094;13.428;2022-11-20T17:26:48;100751.81;;;1.48;73.98
46045;BME280;31781;54.094;13.428;2022-11-20T17:31:58;100742.56;;;1.43;74.25
46045;BME280;31781;54.094;13.428;2022-11-20T17:37:08;100744.53;;;1.41;74.23
46045;BME280;31781;54.094;13.428;2022-11-20T17:42:11;100744.00;;;1.37;74.10
46045;BME280;31781;54.094;13.428;2022-11-20T17:57:55;100731.63;;;1.27;76.39
46045;BME280;31781;54.094;13.428;2022-11-20T18:02:57;100741.41;;;1.45;74.74
46045;BME280;31781;54.094;13.428;2022-11-20T18:08:18;100743.94;;;1.47;74.23
46045;BME280;31781;54.094;13.428;2022-11-20T18:13:21;100742.59;;;1.33;74.27
46045;BME280;31781;54.094;13.428;2022-11-20T18:18:25;100739.00;;;1.25;74.29
46045;BME280;31781;54.094;13.428;2022-11-20T18:23:35;100733.22;;;1.20;74.36
46045;BME280;31781;54.094;13.428;2022-11-20T18:28:38;100737.50;;;1.13;74.35
46045;BME280;31781;54.094;13.428;2022-11-20T18:39:03;100732.28;;;1.11;74.18
46045;BME280;31781;54.094;13.428;2022-11-20T18:44:12;100731.50;;;1.01;74.44
46045;BME280;31781;54.094;13.428;2022-11-20T18:49:16;100723.88;;;0.96;74.52
46045;BME280;31781;54.094;13.428;2022-11-20T18:54:25;100717.12;;;0.92;74.70
46045;BME280;31781;54.094;13.428;2022-11-20T18:59:28;100727.03;;;0.92;74.53
46045;BME280;31781;54.094;13.428;2022-11-20T19:04:32;100721.81;;;0.90;74.67
46045;BME280;31781;54.094;13.428;2022-11-20T19:14:57;100704.87;;;1.00;74.27
46045;BME280;31781;54.094;13.428;2022-11-20T19:20:17;100702.88;;;1.02;74.16
46045;BME280;31781;54.094;13.428;2022-11-20T19:25:21;100701.47;;;0.97;74.34
46045;BME280;31781;54.094;13.428;2022-11-20T19:30:25;100709.50;;;0.97;74.60
46045;BME280;31781;54.094;13.428;2022-11-20T19:35:34;100711.91;;;1.01;74.53
46045;BME280;31781;54.094;13.428;2022-11-20T19:40:36;100709.94;;;1.03;74.57
46045;BME280;31781;54.094;13.428;2022-11-20T19:45:39;100697.22;;;1.05;74.80
46045;BME280;31781;54.094;13.428;2022-11-20T19:50:49;100705.78;;;1.08;74.97
46045;BME280;31781;54.094;13.428;2022-11-20T19:55:55;100707.34;;;1.11;74.92
46045;BME280;31781;54.094;13.428;2022-11-20T20:01:04;100722.09;;;1.15;75.02
46045;BME280;31781;54.094;13.428;2022-11-20T20:06:14;100716.47;;;1.18;74.97
46045;BME280;31781;54.094;13.428;2022-11-20T20:16:38;100719.94;;;1.28;74.76
46045;BME280;31781;54.094;13.428;2022-11-20T20:21:42;100710.66;;;1.22;74.96
46045;BME280;31781;54.094;13.428;2022-11-20T20:26:45;100717.56;;;1.25;75.17
46045;BME280;31781;54.094;13.428;2022-11-20T20:31:53;100705.81;;;1.26;75.29
46045;BME280;31781;54.094;13.428;2022-11-20T20:36:56;100704.84;;;1.27;75.10
46045;BME280;31781;54.094;13.428;2022-11-20T21:07:56;100682.66;;;1.34;75.18
46045;BME280;31781;54.094;13.428;2022-11-20T21:12:59;100671.78;;;1.36;75.01
46045;BME280;31781;54.094;13.428;2022-11-20T21:18:02;100653.87;;;1.36;75.05
46045;BME280;31781;54.094;13.428;2022-11-20T21:39:46;100640.84;;;1.41;74.62
46045;BME280;31781;54.094;13.428;2022-11-20T21:50:45;100631.62;;;1.40;74.49
46045;BME280;31781;54.094;13.428;2022-11-20T21:56:09;100624.06;;;1.39;74.16
46045;BME280;31781;54.094;13.428;2022-11-20T22:01:30;100634.09;;;1.37;74.33
46045;BME280;31781;54.094;13.428;2022-11-20T22:15:27;100614.34;;;1.38;74.03
46045;BME280;31781;54.094;13.428;2022-11-20T22:26:33;100601.84;;;1.30;74.26
